Flight Track Log - Related Links

Times and Time Zones

All times are in EDT time to prevent confusion due to time zone crossing. See the SWA1377 flight status page for this flight to view local times or setup timezone preferences in your user account.

Time Position Orientation Groundspeed Altitude Reporting Facility
EDT Latitude Longitude Course Direction KTS MPH feet Rate Location/Type
Wed 10:28:08 AM 41.8167 -87.7333 90° East 183 211 3,000  Level Chicago TRACON
Wed 10:29:08 AM 41.8167 -87.6500 90° East 257 296 4,700 1,462 Climbing Chicago TRACON
Wed 10:29:26 AM 41.8214 -87.6169 79° East 239 275 4,900 225 Climbing Chicago Center
Wed 10:30:28 AM 41.8300 -87.5169 83° East 257 296 5,000 435 Climbing Chicago Center
Wed 10:31:30 AM 41.8311 -87.4183 89° East 263 303 5,800 976 Climbing Chicago Center
Wed 10:32:31 AM 41.8322 -87.3194 89° East 266 306 7,000 2,341 Climbing Chicago Center
Wed 10:33:00 AM 41.7500 -86.8954 90° East  Level FlightAware Approximate
Wed 10:33:33 AM 41.8386 -87.2106 85° East 291 335 10,600  Level Chicago Center
Wed 10:34:35 AM 41.8367 -87.0917 91° East 324 373 14,400 2,537 Climbing Chicago Center
Wed 10:35:36 AM 41.8306 -86.9369 93° East 346 398 15,800 1,268 Climbing Chicago Center
Wed 10:36:38 AM 41.8311 -86.8039 90° East 359 413 17,000 1,403 Climbing Chicago Center
Wed 10:37:40 AM 41.8383 -86.6775 86° East 382 440 18,700 1,268 Climbing Chicago Center
Wed 10:38:41 AM 41.8303 -86.5331 94° East 390 449 19,600 1,171 Climbing Chicago Center
Wed 10:39:43 AM 41.8250 -86.3581 92° East 392 451 21,100 1,645 Climbing Chicago Center
Wed 10:40:45 AM 41.8203 -86.2044 92° East 410 472 23,000 1,268 Climbing Chicago Center
Wed 10:41:46 AM 41.8361 -86.0464 82° East 424 488 23,700 1,268 Climbing Chicago Center
Wed 10:42:48 AM 41.8611 -85.8806 79° East 441 507 25,600 1,161 Climbing Chicago Center
Wed 10:43:50 AM 41.8844 -85.7186 79° East 449 517 26,100 1,317 Climbing Chicago Center
Wed 10:44:51 AM 41.9089 -85.5511 79° East 452 520 28,300 2,600 Climbing Chicago Center
Wed 10:45:50 AM 41.9372 -85.3656 78° East 475 547 31,300 2,975 Climbing Cleveland Center
Wed 10:46:50 AM 41.9547 -85.1964 82° East 481 554 34,200 1,850 Climbing Cleveland Center
Wed 10:47:50 AM 41.9531 -85.0258 91° East 462 532 35,000 1,400 Climbing Cleveland Center
Wed 10:48:50 AM 41.9536 -84.8500 90° East 462 532 37,000 1,000 Climbing Cleveland Center
Wed 10:49:50 AM 41.9517 -84.6739 91° East 462 532 37,000  Level Cleveland Center
Wed 10:50:50 AM 41.9700 -84.5019 82° East 462 532 37,000  Level Cleveland Center
Wed 10:51:50 AM 41.9944 -84.3328 79° East 462 532 37,000  Level Cleveland Center
Wed 10:52:50 AM 42.0078 -84.1828 83° East 462 532 37,000  Level Cleveland Center
Wed 10:53:50 AM 42.0297 -84.0078 80° East 467 537 37,000  Level Cleveland Center
Wed 10:54:50 AM 42.0472 -83.8353 82° East 467 537 37,000 -50 Level Cleveland Center
Wed 10:55:50 AM 42.0689 -83.6603 80° East 467 537 36,900 -650 Descending Cleveland Center
Wed 10:56:50 AM 42.0906 -83.4681 81° East 467 537 35,700 -1,050 Descending Cleveland Center
Wed 10:57:50 AM 42.1114 -83.2956 81° East 467 537 34,800 -950 Descending Cleveland Center
Wed 10:58:50 AM 42.1300 -83.1169 82° East 472 543 33,800 -900 Descending Cleveland Center
Wed 10:59:50 AM 42.1503 -82.9442 81° East 472 543 33,000 -400 Descending Cleveland Center
Wed 11:00:50 AM 42.1664 -82.7656 83° East 477 549 33,000 -300 Level Cleveland Center
Wed 11:01:50 AM 42.1864 -82.5897 81° East 477 549 32,400 -800 Descending Cleveland Center
Wed 11:02:50 AM 42.2058 -82.4136 81° East 477 549 31,400 -700 Descending Cleveland Center
Wed 11:03:50 AM 42.2253 -82.2319 82° East 482 555 31,000 -400 Descending Cleveland Center
Wed 11:04:50 AM 42.2400 -82.0781 83° East 475 547 30,600 -800 Descending Cleveland Center
Wed 11:05:50 AM 42.2633 -81.8794 81° East 475 547 29,400 -1,650 Descending Cleveland Center
Wed 11:06:50 AM 42.2797 -81.6972 83° East 483 556 27,300 -2,100 Descending Cleveland Center
Wed 11:07:50 AM 42.2981 -81.5153 82° East 483 556 25,200 -1,150 Descending Cleveland Center
Wed 11:08:50 AM 42.3139 -81.3328 83° East 483 556 25,000 -100 Descending Cleveland Center
Wed 11:09:50 AM 42.3294 -81.1561 83° East 476 548 25,000  Level Cleveland Center
Wed 11:10:50 AM 42.3469 -80.9822 82° East 471 542 25,000  Level Cleveland Center
Wed 11:11:50 AM 42.3619 -80.8136 83° East 460 529 25,000  Level Cleveland Center
Wed 11:12:50 AM 42.3769 -80.6394 83° East 465 535 25,000  Level Cleveland Center
Wed 11:13:50 AM 42.3933 -80.4792 82° East 465 535 25,000  Level Cleveland Center
Wed 11:14:50 AM 42.4056 -80.3047 85° East 460 529 25,000 -650 Level Cleveland Center
Wed 11:15:50 AM 42.4219 -80.1331 83° East 467 537 23,700 -1,750 Descending Cleveland Center
Wed 11:16:50 AM 42.4336 -79.9700 84° East 447 514 21,500 -2,250 Descending Cleveland Center
Wed 11:17:50 AM 42.4492 -79.8067 83° East 442 509 19,200 -2,050 Descending Cleveland Center
Wed 11:18:50 AM 42.4606 -79.6517 84° East 427 491 17,400 -2,150 Descending Cleveland Center
Wed 11:19:50 AM 42.4761 -79.5078 82° East 406 467 14,900 -2,200 Descending Cleveland Center
Wed 11:20:50 AM 42.5019 -79.3750 75° East 379 436 13,000 -2,000 Descending Cleveland Center
Wed 11:21:50 AM 42.5525 -79.2528 61° Northeast 346 398 10,900 -2,100 Descending Cleveland Center
Wed 11:22:50 AM 42.6247 -79.1892 33° Northeast 329 379 8,800 -2,100 Descending Cleveland Center
Wed 11:23:50 AM 42.6842 -79.1003 48° Northeast 296 341 6,700 -1,750 Descending Cleveland Center
Wed 11:24:50 AM 42.7372 -79.0256 46° Northeast 275 316 5,300 -1,200 Descending Cleveland Center
Wed 11:25:50 AM 42.7822 -78.9539 49° Northeast 264 304 4,300 -750 Descending Cleveland Center
Wed 11:26:50 AM 42.8189 -78.8992 48° Northeast 233 268 3,800 -750 Descending Cleveland Center
Wed 11:27:50 AM 42.8617 -78.8356 47° Northeast 199 229 2,800 -992 Descending Cleveland Center
Wed 11:28:51 AM 42.9000 -78.7833 45° Northeast 151 174 1,800 -843 Descending Buffalo TRACON
Wed 11:29:51 AM 42.9167 -78.7500 56° Northeast 119 137 1,100 -700 Descending Buffalo TRACON
Wed 11:31:00 AM 42.9333 -78.7167 48° Northeast  Level FlightAware Approximate
Wed 11:38:00 AM 42.9404 -78.7306 48° Northeast  Level Estimated

Login

Don't have an account? Register now (free) for customized features, flight alerts, and more!